sensor_id;sensor_type;location;lat;lon;timestamp;temperature;humidity
12225;DHT22;6175;50.956;11.064;2022-11-15T00:03:50;9.90;99.90
12225;DHT22;6175;50.956;11.064;2022-11-15T00:06:17;10.10;99.90
12225;DHT22;6175;50.956;11.064;2022-11-15T00:08:44;10.10;99.90
12225;DHT22;6175;50.956;11.064;2022-11-15T00:11:13;10.20;99.90
12225;DHT22;6175;50.956;11.064;2022-11-15T00:13:40;10.20;99.90
12225;DHT22;6175;50.956;11.064;2022-11-15T00:16:08;10.20;99.90
12225;DHT22;6175;50.956;11.064;2022-11-15T00:21:04;10.20;99.90
12225;DHT22;6175;50.956;11.064;2022-11-15T00:28:27;10.20;99.90
12225;DHT22;6175;50.956;11.064;2022-11-15T00:33:21;10.10;99.90
12225;DHT22;6175;50.956;11.064;2022-11-15T00:38:15;10.10;99.90
12225;DHT22;6175;50.956;11.064;2022-11-15T00:40:42;10.10;99.90
12225;DHT22;6175;50.956;11.064;2022-11-15T00:45:38;10.10;99.90
12225;DHT22;6175;50.956;11.064;2022-11-15T00:48:05;10.10;99.90
12225;DHT22;6175;50.956;11.064;2022-11-15T00:52:59;10.00;99.90
12225;DHT22;6175;50.956;11.064;2022-11-15T00:55:26;10.00;99.90
12225;DHT22;6175;50.956;11.064;2022-11-15T01:02:51;10.00;99.90
12225;DHT22;6175;50.956;11.064;2022-11-15T01:10:12;10.00;99.90
12225;DHT22;6175;50.956;11.064;2022-11-15T01:15:07;9.90;99.90
12225;DHT22;6175;50.956;11.064;2022-11-15T01:20:03;9.90;99.90
12225;DHT22;6175;50.956;11.064;2022-11-15T01:24:57;10.00;99.90
12225;DHT22;6175;50.956;11.064;2022-11-15T01:29:51;9.80;99.90
12225;DHT22;6175;50.956;11.064;2022-11-15T01:37:14;9.80;99.90
12225;DHT22;6175;50.956;11.064;2022-11-15T01:39:41;9.80;99.90
12225;DHT22;6175;50.956;11.064;2022-11-15T01:42:12;9.70;99.90
12225;DHT22;6175;50.956;11.064;2022-11-15T01:44:44;9.50;99.90
12225;DHT22;6175;50.956;11.064;2022-11-15T01:47:15;9.50;99.90
12225;DHT22;6175;50.956;11.064;2022-11-15T01:49:49;9.40;99.90
12225;DHT22;6175;50.956;11.064;2022-11-15T01:52:20;9.30;99.90
12225;DHT22;6175;50.956;11.064;2022-11-15T01:54:51;9.20;99.90
12225;DHT22;6175;50.956;11.064;2022-11-15T01:57:20;10.90;99.90
12225;DHT22;6175;50.956;11.064;2022-11-15T02:02:14;9.10;99.90
12225;DHT22;6175;50.956;11.064;2022-11-15T02:04:43;9.00;99.90
12225;DHT22;6175;50.956;11.064;2022-11-15T02:07:13;9.10;99.90
12225;DHT22;6175;50.956;11.064;2022-11-15T02:09:43;9.20;99.90
12225;DHT22;6175;50.956;11.064;2022-11-15T02:12:11;9.30;99.90
12225;DHT22;6175;50.956;11.064;2022-11-15T02:14:43;10.30;99.90
12225;DHT22;6175;50.956;11.064;2022-11-15T02:17:28;9.50;99.90
12225;DHT22;6175;50.956;11.064;2022-11-15T02:23:31;9.60;99.90
12225;DHT22;6175;50.956;11.064;2022-11-15T02:26:24;9.60;99.90
12225;DHT22;6175;50.956;11.064;2022-11-15T02:29:02;9.50;99.90
12225;DHT22;6175;50.956;11.064;2022-11-15T02:31:38;9.40;99.90
12225;DHT22;6175;50.956;11.064;2022-11-15T02:34:11;9.40;99.90
12225;DHT22;6175;50.956;11.064;2022-11-15T02:36:53;9.50;99.90
12225;DHT22;6175;50.956;11.064;2022-11-15T02:39:28;9.60;99.90
12225;DHT22;6175;50.956;11.064;2022-11-15T02:42:02;9.70;99.90
12225;DHT22;6175;50.956;11.064;2022-11-15T02:44:52;9.80;99.90
12225;DHT22;6175;50.956;11.064;2022-11-15T02:47:20;10.00;99.90
12225;DHT22;6175;50.956;11.064;2022-11-15T02:49:51;10.10;99.90
12225;DHT22;6175;50.956;11.064;2022-11-15T02:52:20;10.10;99.90
12225;DHT22;6175;50.956;11.064;2022-11-15T02:54:53;10.20;99.90
12225;DHT22;6175;50.956;11.064;2022-11-15T02:57:26;10.20;99.90
12225;DHT22;6175;50.956;11.064;2022-11-15T03:00:06;10.20;99.90
12225;DHT22;6175;50.956;11.064;2022-11-15T03:02:50;10.10;99.90
12225;DHT22;6175;50.956;11.064;2022-11-15T03:05:28;10.20;99.90
12225;DHT22;6175;50.956;11.064;2022-11-15T03:08:02;10.20;99.90
12225;DHT22;6175;50.956;11.064;2022-11-15T03:10:38;10.20;99.90
12225;DHT22;6175;50.956;11.064;2022-11-15T03:13:14;10.20;99.90
12225;DHT22;6175;50.956;11.064;2022-11-15T03:15:49;10.20;99.90
12225;DHT22;6175;50.956;11.064;2022-11-15T03:18:21;10.10;99.90
12225;DHT22;6175;50.956;11.064;2022-11-15T03:20:50;10.10;99.90
12225;DHT22;6175;50.956;11.064;2022-11-15T03:25:47;10.10;99.90
12225;DHT22;6175;50.956;11.064;2022-11-15T03:28:18;10.10;99.90
12225;DHT22;6175;50.956;11.064;2022-11-15T03:30:49;10.00;99.90
12225;DHT22;6175;50.956;11.064;2022-11-15T03:33:19;10.00;99.90
12225;DHT22;6175;50.956;11.064;2022-11-15T03:35:47;10.00;99.90
12225;DHT22;6175;50.956;11.064;2022-11-15T03:38:19;10.10;99.90
12225;DHT22;6175;50.956;11.064;2022-11-15T03:40:51;10.10;99.90
12225;DHT22;6175;50.956;11.064;2022-11-15T03:43:24;9.90;99.90
12225;DHT22;6175;50.956;11.064;2022-11-15T03:45:57;10.00;99.90
12225;DHT22;6175;50.956;11.064;2022-11-15T03:48:30;9.90;99.90
12225;DHT22;6175;50.956;11.064;2022-11-15T04:00:50;9.70;99.90
12225;DHT22;6175;50.956;11.064;2022-11-15T04:03:17;9.60;99.90
12225;DHT22;6175;50.956;11.064;2022-11-15T04:05:45;9.60;99.90
12225;DHT22;6175;50.956;11.064;2022-11-15T04:10:39;9.70;99.90
12225;DHT22;6175;50.956;11.064;2022-11-15T04:15:34;9.80;99.90
12225;DHT22;6175;50.956;11.064;2022-11-15T04:20:30;9.70;99.90
12225;DHT22;6175;50.956;11.064;2022-11-15T04:23:18;9.70;99.90
12225;DHT22;6175;50.956;11.064;2022-11-15T04:26:04;9.70;99.90
12225;DHT22;6175;50.956;11.064;2022-11-15T04:28:32;9.60;99.90
12225;DHT22;6175;50.956;11.064;2022-11-15T04:38:40;9.60;99.90
12225;DHT22;6175;50.956;11.064;2022-11-15T04:46:01;9.80;99.90
12225;DHT22;6175;50.956;11.064;2022-11-15T04:50:55;9.70;99.90
12225;DHT22;6175;50.956;11.064;2022-11-15T04:55:51;9.90;99.90
12225;DHT22;6175;50.956;11.064;2022-11-15T05:03:12;10.00;99.90
12225;DHT22;6175;50.956;11.064;2022-11-15T05:05:57;9.90;99.90
12225;DHT22;6175;50.956;11.064;2022-11-15T05:10:53;10.10;99.90
12225;DHT22;6175;50.956;11.064;2022-11-15T05:15:47;10.00;99.90
12225;DHT22;6175;50.956;11.064;2022-11-15T05:20:41;10.00;99.90
12225;DHT22;6175;50.956;11.064;2022-11-15T05:23:08;10.00;99.90
12225;DHT22;6175;50.956;11.064;2022-11-15T05:25:36;9.90;99.90
12225;DHT22;6175;50.956;11.064;2022-11-15T05:28:05;9.90;99.90
12225;DHT22;6175;50.956;11.064;2022-11-15T05:32:59;7.70;99.90
12225;DHT22;6175;50.956;11.064;2022-11-15T05:35:33;9.90;99.90
12225;DHT22;6175;50.956;11.064;2022-11-15T05:40:29;9.90;99.90
12225;DHT22;6175;50.956;11.064;2022-11-15T05:42:57;9.90;99.90
12225;DHT22;6175;50.956;11.064;2022-11-15T05:45:26;9.90;99.90
12225;DHT22;6175;50.956;11.064;2022-11-15T05:47:54;9.90;99.90
12225;DHT22;6175;50.956;11.064;2022-11-15T05:50:22;9.80;99.90
12225;DHT22;6175;50.956;11.064;2022-11-15T05:52:50;9.70;99.90
12225;DHT22;6175;50.956;11.064;2022-11-15T05:57:45;9.60;99.90
12225;DHT22;6175;50.956;11.064;2022-11-15T06:00:12;9.60;99.90
12225;DHT22;6175;50.956;11.064;2022-11-15T06:02:41;9.50;99.90
12225;DHT22;6175;50.956;11.064;2022-11-15T06:10:03;9.30;99.90
12225;DHT22;6175;50.956;11.064;2022-11-15T06:12:31;9.30;99.90
12225;DHT22;6175;50.956;11.064;2022-11-15T06:14:58;9.20;99.90
12225;DHT22;6175;50.956;11.064;2022-11-15T06:19:53;9.20;99.90
12225;DHT22;6175;50.956;11.064;2022-11-15T06:22:20;9.10;99.90
12225;DHT22;6175;50.956;11.064;2022-11-15T06:29:41;9.20;99.90
12225;DHT22;6175;50.956;11.064;2022-11-15T06:34:36;9.20;99.90
12225;DHT22;6175;50.956;11.064;2022-11-15T06:37:04;9.10;99.90
12225;DHT22;6175;50.956;11.064;2022-11-15T06:44:26;8.90;99.90
12225;DHT22;6175;50.956;11.064;2022-11-15T06:49:20;8.70;99.90
12225;DHT22;6175;50.956;11.064;2022-11-15T06:54:16;9.60;99.90
12225;DHT22;6175;50.956;11.064;2022-11-15T07:04:04;10.90;99.90
12225;DHT22;6175;50.956;11.064;2022-11-15T07:11:27;8.70;99.90
12225;DHT22;6175;50.956;11.064;2022-11-15T07:13:53;8.60;99.90
12225;DHT22;6175;50.956;11.064;2022-11-15T07:18:48;8.50;99.90
12225;DHT22;6175;50.956;11.064;2022-11-15T07:26:09;8.50;99.90
12225;DHT22;6175;50.956;11.064;2022-11-15T07:28:37;8.50;99.90
12225;DHT22;6175;50.956;11.064;2022-11-15T07:31:05;8.50;99.90
12225;DHT22;6175;50.956;11.064;2022-11-15T07:40:59;8.50;99.90
12225;DHT22;6175;50.956;11.064;2022-11-15T07:45:56;8.50;99.90
12225;DHT22;6175;50.956;11.064;2022-11-15T07:53:18;8.50;99.90
12225;DHT22;6175;50.956;11.064;2022-11-15T07:58:13;8.50;99.90
12225;DHT22;6175;50.956;11.064;2022-11-15T08:03:10;8.60;99.90
12225;DHT22;6175;50.956;11.064;2022-11-15T08:05:38;8.70;99.90
12225;DHT22;6175;50.956;11.064;2022-11-15T08:08:05;8.70;99.90
12225;DHT22;6175;50.956;11.064;2022-11-15T08:10:33;8.80;99.90
12225;DHT22;6175;50.956;11.064;2022-11-15T08:13:02;8.80;99.90
12225;DHT22;6175;50.956;11.064;2022-11-15T08:17:59;8.90;99.90
12225;DHT22;6175;50.956;11.064;2022-11-15T08:20:28;11.80;99.90
12225;DHT22;6175;50.956;11.064;2022-11-15T08:30:19;9.20;99.90
12225;DHT22;6175;50.956;11.064;2022-11-15T08:32:46;9.50;99.90
12225;DHT22;6175;50.956;11.064;2022-11-15T08:37:42;9.70;99.90
12225;DHT22;6175;50.956;11.064;2022-11-15T08:40:09;9.80;99.90
12225;DHT22;6175;50.956;11.064;2022-11-15T08:42:37;10.00;99.90
12225;DHT22;6175;50.956;11.064;2022-11-15T08:45:04;9.00;99.90
12225;DHT22;6175;50.956;11.064;2022-11-15T08:49:58;10.50;99.90
12225;DHT22;6175;50.956;11.064;2022-11-15T08:52:25;10.60;99.90
12225;DHT22;6175;50.956;11.064;2022-11-15T08:54:53;10.70;99.90
12225;DHT22;6175;50.956;11.064;2022-11-15T09:02:15;10.90;99.90
12225;DHT22;6175;50.956;11.064;2022-11-15T09:04:43;11.10;99.90
12225;DHT22;6175;50.956;11.064;2022-11-15T09:07:10;11.10;99.90
12225;DHT22;6175;50.956;11.064;2022-11-15T09:09:39;11.20;99.90
12225;DHT22;6175;50.956;11.064;2022-11-15T09:12:07;11.20;99.90
12225;DHT22;6175;50.956;11.064;2022-11-15T09:14:34;11.30;99.90
12225;DHT22;6175;50.956;11.064;2022-11-15T09:26:51;11.60;99.90
12225;DHT22;6175;50.956;11.064;2022-11-15T09:29:19;11.60;99.90
12225;DHT22;6175;50.956;11.064;2022-11-15T09:34:14;11.60;99.90
12225;DHT22;6175;50.956;11.064;2022-11-15T09:39:09;11.60;99.90
12225;DHT22;6175;50.956;11.064;2022-11-15T09:42:06;11.60;99.90
12225;DHT22;6175;50.956;11.064;2022-11-15T09:44:47;11.60;99.90
12225;DHT22;6175;50.956;11.064;2022-11-15T09:47:36;11.60;99.90
12225;DHT22;6175;50.956;11.064;2022-11-15T09:50:10;11.60;99.90
12225;DHT22;6175;50.956;11.064;2022-11-15T09:52:41;11.60;99.90
12225;DHT22;6175;50.956;11.064;2022-11-15T09:55:10;11.50;99.90
12225;DHT22;6175;50.956;11.064;2022-11-15T09:57:44;11.60;99.90
12225;DHT22;6175;50.956;11.064;2022-11-15T10:00:18;11.40;99.90
12225;DHT22;6175;50.956;11.064;2022-11-15T10:03:02;11.50;99.90
12225;DHT22;6175;50.956;11.064;2022-11-15T10:05:32;11.60;99.90
12225;DHT22;6175;50.956;11.064;2022-11-15T10:08:06;11.60;99.90
12225;DHT22;6175;50.956;11.064;2022-11-15T10:10:40;11.60;99.90
12225;DHT22;6175;50.956;11.064;2022-11-15T10:13:13;11.80;99.90
12225;DHT22;6175;50.956;11.064;2022-11-15T10:15:45;11.90;99.90
12225;DHT22;6175;50.956;11.064;2022-11-15T10:18:16;12.00;99.90
12225;DHT22;6175;50.956;11.064;2022-11-15T10:20:48;12.10;99.90
12225;DHT22;6175;50.956;11.064;2022-11-15T10:23:18;12.20;99.90
12225;DHT22;6175;50.956;11.064;2022-11-15T10:28:17;12.40;99.90
12225;DHT22;6175;50.956;11.064;2022-11-15T10:30:50;12.40;99.90
12225;DHT22;6175;50.956;11.064;2022-11-15T10:33:29;12.50;99.90
12225;DHT22;6175;50.956;11.064;2022-11-15T10:36:18;12.60;99.90
12225;DHT22;6175;50.956;11.064;2022-11-15T10:38:56;12.70;99.90
12225;DHT22;6175;50.956;11.064;2022-11-15T10:41:35;12.80;99.90
12225;DHT22;6175;50.956;11.064;2022-11-15T10:44:17;12.90;99.90
12225;DHT22;6175;50.956;11.064;2022-11-15T10:46:47;12.90;99.90
12225;DHT22;6175;50.956;11.064;2022-11-15T10:49:17;13.00;99.90
12225;DHT22;6175;50.956;11.064;2022-11-15T10:51:47;13.10;99.90
12225;DHT22;6175;50.956;11.064;2022-11-15T10:54:18;13.20;99.90
12225;DHT22;6175;50.956;11.064;2022-11-15T10:56:50;13.20;99.90
12225;DHT22;6175;50.956;11.064;2022-11-15T10:59:23;13.20;99.90
12225;DHT22;6175;50.956;11.064;2022-11-15T11:01:51;13.10;99.90
12225;DHT22;6175;50.956;11.064;2022-11-15T11:04:18;13.30;99.90
12225;DHT22;6175;50.956;11.064;2022-11-15T11:06:47;13.30;99.90
12225;DHT22;6175;50.956;11.064;2022-11-15T11:09:25;13.30;99.90
12225;DHT22;6175;50.956;11.064;2022-11-15T11:11:54;13.30;99.90
12225;DHT22;6175;50.956;11.064;2022-11-15T11:14:23;13.40;99.90
12225;DHT22;6175;50.956;11.064;2022-11-15T11:16:55;13.40;99.90
12225;DHT22;6175;50.956;11.064;2022-11-15T11:19:40;13.50;99.90
12225;DHT22;6175;50.956;11.064;2022-11-15T11:22:18;13.70;99.90
12225;DHT22;6175;50.956;11.064;2022-11-15T11:24:55;13.80;99.90
12225;DHT22;6175;50.956;11.064;2022-11-15T11:27:35;13.90;99.90
12225;DHT22;6175;50.956;11.064;2022-11-15T11:30:08;13.90;99.90
12225;DHT22;6175;50.956;11.064;2022-11-15T11:32:57;13.90;99.90
12225;DHT22;6175;50.956;11.064;2022-11-15T11:35:32;14.00;99.90
12225;DHT22;6175;50.956;11.064;2022-11-15T11:38:15;14.00;99.90
12225;DHT22;6175;50.956;11.064;2022-11-15T11:40:53;14.00;99.90
12225;DHT22;6175;50.956;11.064;2022-11-15T11:43:27;14.00;99.90
12225;DHT22;6175;50.956;11.064;2022-11-15T11:46:19;13.90;99.90
12225;DHT22;6175;50.956;11.064;2022-11-15T11:48:53;14.00;99.90
12225;DHT22;6175;50.956;11.064;2022-11-15T11:51:27;14.10;99.90
12225;DHT22;6175;50.956;11.064;2022-11-15T11:53:58;14.10;99.90
12225;DHT22;6175;50.956;11.064;2022-11-15T11:56:29;14.00;99.90
12225;DHT22;6175;50.956;11.064;2022-11-15T11:59:02;14.10;99.90
12225;DHT22;6175;50.956;11.064;2022-11-15T12:01:36;14.10;99.90
12225;DHT22;6175;50.956;11.064;2022-11-15T12:04:10;14.10;99.90
12225;DHT22;6175;50.956;11.064;2022-11-15T12:06:42;14.00;99.90
12225;DHT22;6175;50.956;11.064;2022-11-15T12:09:15;14.00;99.90
12225;DHT22;6175;50.956;11.064;2022-11-15T12:11:50;14.00;99.90
12225;DHT22;6175;50.956;11.064;2022-11-15T12:14:29;14.10;99.90
12225;DHT22;6175;50.956;11.064;2022-11-15T12:16:57;14.20;99.90
12225;DHT22;6175;50.956;11.064;2022-11-15T12:19:26;14.20;99.90
12225;DHT22;6175;50.956;11.064;2022-11-15T12:21:58;14.30;99.90
12225;DHT22;6175;50.956;11.064;2022-11-15T12:24:29;14.20;99.90
12225;DHT22;6175;50.956;11.064;2022-11-15T12:27:00;14.30;99.90
12225;DHT22;6175;50.956;11.064;2022-11-15T12:29:33;14.30;99.90
12225;DHT22;6175;50.956;11.064;2022-11-15T12:32:02;14.40;99.90
12225;DHT22;6175;50.956;11.064;2022-11-15T12:34:40;14.40;99.90
12225;DHT22;6175;50.956;11.064;2022-11-15T12:37:34;14.50;99.90
12225;DHT22;6175;50.956;11.064;2022-11-15T12:45:46;14.60;99.90
12225;DHT22;6175;50.956;11.064;2022-11-15T12:55:00;14.70;99.90
12225;DHT22;6175;50.956;11.064;2022-11-15T12:57:38;14.80;99.90
12225;DHT22;6175;50.956;11.064;2022-11-15T13:03:25;14.70;99.90
12225;DHT22;6175;50.956;11.064;2022-11-15T13:06:05;14.70;99.90
12225;DHT22;6175;50.956;11.064;2022-11-15T13:08:40;14.80;99.90
12225;DHT22;6175;50.956;11.064;2022-11-15T13:11:41;14.80;99.90
12225;DHT22;6175;50.956;11.064;2022-11-15T13:14:39;14.70;99.90
12225;DHT22;6175;50.956;11.064;2022-11-15T13:17:28;14.80;99.90
12225;DHT22;6175;50.956;11.064;2022-11-15T13:20:01;14.70;99.90
12225;DHT22;6175;50.956;11.064;2022-11-15T13:22:38;14.80;99.90
12225;DHT22;6175;50.956;11.064;2022-11-15T13:25:33;14.70;99.90
12225;DHT22;6175;50.956;11.064;2022-11-15T13:28:11;14.60;99.90
12225;DHT22;6175;50.956;11.064;2022-11-15T13:30:50;14.60;99.90
12225;DHT22;6175;50.956;11.064;2022-11-15T13:33:20;14.50;99.90
12225;DHT22;6175;50.956;11.064;2022-11-15T13:35:50;14.40;99.90
12225;DHT22;6175;50.956;11.064;2022-11-15T13:38:19;14.30;99.90
12225;DHT22;6175;50.956;11.064;2022-11-15T13:40:53;14.20;99.90
12225;DHT22;6175;50.956;11.064;2022-11-15T13:43:34;14.20;99.90
12225;DHT22;6175;50.956;11.064;2022-11-15T13:46:12;14.10;99.90
12225;DHT22;6175;50.956;11.064;2022-11-15T13:48:40;14.00;99.90
12225;DHT22;6175;50.956;11.064;2022-11-15T13:51:18;13.90;99.90
12225;DHT22;6175;50.956;11.064;2022-11-15T13:53:49;14.00;99.90
12225;DHT22;6175;50.956;11.064;2022-11-15T13:56:20;13.90;99.90
12225;DHT22;6175;50.956;11.064;2022-11-15T13:58:48;13.90;99.90
12225;DHT22;6175;50.956;11.064;2022-11-15T14:01:17;13.90;99.90
12225;DHT22;6175;50.956;11.064;2022-11-15T14:03:55;13.80;99.90
12225;DHT22;6175;50.956;11.064;2022-11-15T14:06:25;13.80;99.90
12225;DHT22;6175;50.956;11.064;2022-11-15T14:09:29;13.80;99.90
12225;DHT22;6175;50.956;11.064;2022-11-15T14:12:00;13.80;99.90
12225;DHT22;6175;50.956;11.064;2022-11-15T14:14:28;13.80;99.90
12225;DHT22;6175;50.956;11.064;2022-11-15T14:16:58;13.80;99.90
12225;DHT22;6175;50.956;11.064;2022-11-15T14:19:36;13.80;99.90
12225;DHT22;6175;50.956;11.064;2022-11-15T14:22:19;13.80;99.90
12225;DHT22;6175;50.956;11.064;2022-11-15T14:25:13;13.80;99.90
12225;DHT22;6175;50.956;11.064;2022-11-15T14:27:43;13.80;99.90
12225;DHT22;6175;50.956;11.064;2022-11-15T14:30:14;13.80;99.90
12225;DHT22;6175;50.956;11.064;2022-11-15T14:32:44;13.80;99.90
12225;DHT22;6175;50.956;11.064;2022-11-15T14:35:15;13.80;99.90
12225;DHT22;6175;50.956;11.064;2022-11-15T14:40:13;13.90;99.90
12225;DHT22;6175;50.956;11.064;2022-11-15T14:42:43;13.90;99.90
12225;DHT22;6175;50.956;11.064;2022-11-15T14:45:12;13.90;99.90
12225;DHT22;6175;50.956;11.064;2022-11-15T14:47:40;13.90;99.90
12225;DHT22;6175;50.956;11.064;2022-11-15T14:50:11;14.00;99.90
12225;DHT22;6175;50.956;11.064;2022-11-15T14:55:14;13.90;99.90
12225;DHT22;6175;50.956;11.064;2022-11-15T14:57:44;13.80;99.90
12225;DHT22;6175;50.956;11.064;2022-11-15T15:00:13;13.70;99.90
12225;DHT22;6175;50.956;11.064;2022-11-15T15:02:41;13.70;99.90
12225;DHT22;6175;50.956;11.064;2022-11-15T15:05:16;13.60;99.90
12225;DHT22;6175;50.956;11.064;2022-11-15T15:07:43;13.50;99.90
12225;DHT22;6175;50.956;11.064;2022-11-15T15:10:11;13.30;99.90
12225;DHT22;6175;50.956;11.064;2022-11-15T15:15:13;13.40;99.90
12225;DHT22;6175;50.956;11.064;2022-11-15T15:17:40;13.30;99.90
12225;DHT22;6175;50.956;11.064;2022-11-15T15:20:08;13.30;99.90
12225;DHT22;6175;50.956;11.064;2022-11-15T15:22:36;13.20;99.90
12225;DHT22;6175;50.956;11.064;2022-11-15T15:25:17;13.20;99.90
12225;DHT22;6175;50.956;11.064;2022-11-15T15:27:46;13.10;99.90
12225;DHT22;6175;50.956;11.064;2022-11-15T15:30:14;13.10;99.90
12225;DHT22;6175;50.956;11.064;2022-11-15T15:35:12;13.10;99.90
12225;DHT22;6175;50.956;11.064;2022-11-15T15:37:39;13.10;99.90
12225;DHT22;6175;50.956;11.064;2022-11-15T15:40:11;13.00;99.90
12225;DHT22;6175;50.956;11.064;2022-11-15T15:42:39;13.00;99.90
12225;DHT22;6175;50.956;11.064;2022-11-15T15:47:36;13.00;99.90
12225;DHT22;6175;50.956;11.064;2022-11-15T15:50:05;13.00;99.90
12225;DHT22;6175;50.956;11.064;2022-11-15T15:52:38;12.90;99.90
12225;DHT22;6175;50.956;11.064;2022-11-15T15:55:05;12.90;99.90
12225;DHT22;6175;50.956;11.064;2022-11-15T16:04:55;12.70;99.90
12225;DHT22;6175;50.956;11.064;2022-11-15T16:07:23;12.80;99.90
12225;DHT22;6175;50.956;11.064;2022-11-15T16:17:22;12.60;99.90
12225;DHT22;6175;50.956;11.064;2022-11-15T16:19:49;12.50;99.90
12225;DHT22;6175;50.956;11.064;2022-11-15T16:22:17;12.50;99.90
12225;DHT22;6175;50.956;11.064;2022-11-15T16:27:14;12.40;99.90
12225;DHT22;6175;50.956;11.064;2022-11-15T16:32:08;12.40;99.90
12225;DHT22;6175;50.956;11.064;2022-11-15T16:34:36;12.40;99.90
12225;DHT22;6175;50.956;11.064;2022-11-15T16:39:32;12.50;99.90
12225;DHT22;6175;50.956;11.064;2022-11-15T16:41:59;14.90;99.90
12225;DHT22;6175;50.956;11.064;2022-11-15T16:46:55;12.20;99.90
12225;DHT22;6175;50.956;11.064;2022-11-15T16:54:17;12.20;99.90
12225;DHT22;6175;50.956;11.064;2022-11-15T16:56:45;11.10;99.90
12225;DHT22;6175;50.956;11.064;2022-11-15T16:59:15;12.10;99.90
12225;DHT22;6175;50.956;11.064;2022-11-15T17:01:43;12.10;99.90
12225;DHT22;6175;50.956;11.064;2022-11-15T17:04:16;12.10;99.90
12225;DHT22;6175;50.956;11.064;2022-11-15T17:06:44;12.00;99.90
12225;DHT22;6175;50.956;11.064;2022-11-15T17:09:13;12.00;99.90
12225;DHT22;6175;50.956;11.064;2022-11-15T17:11:41;11.90;99.90
12225;DHT22;6175;50.956;11.064;2022-11-15T17:14:10;11.90;99.90
12225;DHT22;6175;50.956;11.064;2022-11-15T17:19:11;11.80;99.90
12225;DHT22;6175;50.956;11.064;2022-11-15T17:21:40;11.80;99.90
12225;DHT22;6175;50.956;11.064;2022-11-15T17:24:07;11.70;99.90
12225;DHT22;6175;50.956;11.064;2022-11-15T17:34:01;11.50;99.90
12225;DHT22;6175;50.956;11.064;2022-11-15T17:36:28;11.40;99.90
12225;DHT22;6175;50.956;11.064;2022-11-15T17:41:22;11.30;99.90
12225;DHT22;6175;50.956;11.064;2022-11-15T17:43:49;11.20;99.90
12225;DHT22;6175;50.956;11.064;2022-11-15T17:46:19;11.20;99.90
12225;DHT22;6175;50.956;11.064;2022-11-15T17:48:48;11.10;99.90
12225;DHT22;6175;50.956;11.064;2022-11-15T17:51:16;11.00;99.90
12225;DHT22;6175;50.956;11.064;2022-11-15T17:53:44;10.90;99.90
12225;DHT22;6175;50.956;11.064;2022-11-15T17:56:13;10.90;99.90
12225;DHT22;6175;50.956;11.064;2022-11-15T18:01:09;10.80;99.90
12225;DHT22;6175;50.956;11.064;2022-11-15T18:03:38;10.80;99.90
12225;DHT22;6175;50.956;11.064;2022-11-15T18:06:07;10.70;99.90
12225;DHT22;6175;50.956;11.064;2022-11-15T18:08:36;10.70;99.90
12225;DHT22;6175;50.956;11.064;2022-11-15T18:11:05;10.60;99.90
12225;DHT22;6175;50.956;11.064;2022-11-15T18:13:33;10.60;99.90
12225;DHT22;6175;50.956;11.064;2022-11-15T18:16:00;10.60;99.90
12225;DHT22;6175;50.956;11.064;2022-11-15T18:18:29;10.50;99.90
12225;DHT22;6175;50.956;11.064;2022-11-15T18:21:01;10.50;99.90
12225;DHT22;6175;50.956;11.064;2022-11-15T18:23:30;10.50;99.90
12225;DHT22;6175;50.956;11.064;2022-11-15T18:25:58;10.50;99.90
12225;DHT22;6175;50.956;11.064;2022-11-15T18:28:32;10.50;99.90
12225;DHT22;6175;50.956;11.064;2022-11-15T18:31:01;10.50;99.90
12225;DHT22;6175;50.956;11.064;2022-11-15T18:33:32;10.50;99.90
12225;DHT22;6175;50.956;11.064;2022-11-15T18:40:57;10.50;99.90
12225;DHT22;6175;50.956;11.064;2022-11-15T18:45:52;10.50;99.90
12225;DHT22;6175;50.956;11.064;2022-11-15T18:50:46;10.50;99.90
12225;DHT22;6175;50.956;11.064;2022-11-15T18:55:40;10.50;99.90
12225;DHT22;6175;50.956;11.064;2022-11-15T18:58:08;10.60;99.90
12225;DHT22;6175;50.956;11.064;2022-11-15T19:10:26;11.00;99.90
12225;DHT22;6175;50.956;11.064;2022-11-15T19:12:54;11.00;99.90
12225;DHT22;6175;50.956;11.064;2022-11-15T19:15:22;11.10;99.90
12225;DHT22;6175;50.956;11.064;2022-11-15T19:20:16;11.20;99.90
12225;DHT22;6175;50.956;11.064;2022-11-15T19:25:11;11.20;99.90
12225;DHT22;6175;50.956;11.064;2022-11-15T19:27:37;11.10;99.90
12225;DHT22;6175;50.956;11.064;2022-11-15T19:30:06;11.10;99.90
12225;DHT22;6175;50.956;11.064;2022-11-15T19:32:34;11.10;99.90
12225;DHT22;6175;50.956;11.064;2022-11-15T19:39:56;10.90;99.90
12225;DHT22;6175;50.956;11.064;2022-11-15T19:44:50;11.00;99.90
12225;DHT22;6175;50.956;11.064;2022-11-15T19:49:46;10.90;99.90
12225;DHT22;6175;50.956;11.064;2022-11-15T19:54:40;11.20;99.90
12225;DHT22;6175;50.956;11.064;2022-11-15T20:04:28;11.40;99.90
12225;DHT22;6175;50.956;11.064;2022-11-15T20:06:56;11.50;99.90
12225;DHT22;6175;50.956;11.064;2022-11-15T20:19:12;11.70;99.90
12225;DHT22;6175;50.956;11.064;2022-11-15T20:21:41;11.70;99.90
12225;DHT22;6175;50.956;11.064;2022-11-15T20:24:09;11.70;99.90
12225;DHT22;6175;50.956;11.064;2022-11-15T20:26:36;11.60;99.90
12225;DHT22;6175;50.956;11.064;2022-11-15T20:29:03;11.80;99.90
12225;DHT22;6175;50.956;11.064;2022-11-15T20:31:31;11.80;99.90
12225;DHT22;6175;50.956;11.064;2022-11-15T20:36:25;11.80;99.90
12225;DHT22;6175;50.956;11.064;2022-11-15T20:38:55;11.90;99.90
12225;DHT22;6175;50.956;11.064;2022-11-15T20:41:24;11.90;99.90
12225;DHT22;6175;50.956;11.064;2022-11-15T20:43:55;11.80;99.90
12225;DHT22;6175;50.956;11.064;2022-11-15T20:51:17;11.70;99.90
12225;DHT22;6175;50.956;11.064;2022-11-15T20:53:45;11.70;99.90
12225;DHT22;6175;50.956;11.064;2022-11-15T20:56:13;11.70;99.90
12225;DHT22;6175;50.956;11.064;2022-11-15T20:58:43;11.60;99.90
12225;DHT22;6175;50.956;11.064;2022-11-15T21:01:11;11.50;99.90
12225;DHT22;6175;50.956;11.064;2022-11-15T21:14:01;11.40;99.90
12225;DHT22;6175;50.956;11.064;2022-11-15T21:21:23;11.30;99.90
12225;DHT22;6175;50.956;11.064;2022-11-15T21:28:44;11.40;99.90
12225;DHT22;6175;50.956;11.064;2022-11-15T21:31:13;11.30;99.90
12225;DHT22;6175;50.956;11.064;2022-11-15T21:36:08;11.30;99.90
12225;DHT22;6175;50.956;11.064;2022-11-15T21:38:35;11.20;99.90
12225;DHT22;6175;50.956;11.064;2022-11-15T21:41:03;11.40;99.90
12225;DHT22;6175;50.956;11.064;2022-11-15T21:45:58;11.40;99.90
12225;DHT22;6175;50.956;11.064;2022-11-15T21:48:28;11.40;99.90
12225;DHT22;6175;50.956;11.064;2022-11-15T21:50:55;11.40;99.90
12225;DHT22;6175;50.956;11.064;2022-11-15T21:53:23;11.30;99.90
12225;DHT22;6175;50.956;11.064;2022-11-15T21:58:18;11.40;99.90
12225;DHT22;6175;50.956;11.064;2022-11-15T22:03:32;11.30;99.90
12225;DHT22;6175;50.956;11.064;2022-11-15T22:08:27;11.30;99.90
12225;DHT22;6175;50.956;11.064;2022-11-15T22:13:22;11.30;99.90
12225;DHT22;6175;50.956;11.064;2022-11-15T22:20:53;11.20;99.90
12225;DHT22;6175;50.956;11.064;2022-11-15T22:25:47;11.20;99.90